This is the latest recevied weather packets stored in our database for station/object VK4JLM-1. If no packets are shown the sender has not sent any weather packets the latest 10 day(s).
| Time | Temp. | Humidity | Pressure | Rain* | Wind** | Luminosity | Snow |
|---|---|---|---|---|---|---|---|
| 1777420876 | 28.33° C | 58% | 1027.3 hPa | 0 mm | - | - | - |
| 1777419751 | 28.33° C | 57% | 1027.3 hPa | 0 mm | - | - | - |
| 1777418641 | 26.67° C | 61% | 1027.4 hPa | 0 mm | - | - | - |
| 1777417476 | 25.56° C | 64% | 1027.3 hPa | 0 mm | - | - | - |
| 1777416421 | 23.33° C | 71% | 1027.2 hPa | 0 mm | - | - | - |
| 1777415436 | 22.22° C | 73% | 1027.1 hPa | 0 mm | - | - | - |
| 1777414361 | 25° C | 63% | 1027 hPa | 0 mm | - | - | - |
| 1777412216 | 20° C | 80% | 1026.8 hPa | 0 mm | - | - | - |
| 1777411021 | 16.67° C | 92% | 1026.6 hPa | 0 mm | - | - | - |
| 1777409911 | 16.11° C | 94% | 1026.4 hPa | 0 mm | - | - | - |
| 1777408866 | 15.56° C | 95% | 1026.2 hPa | 0 mm | - | - | - |
| 1777407811 | 15.56° C | 96% | 1026 hPa | 0 mm | - | - | - |
| 1777406636 | 15.56° C | 96% | 1025.8 hPa | 0 mm | - | - | - |
| 1777405656 | 15.56° C | 96% | 1025.7 hPa | 0 mm | - | - | - |
| 1777404476 | 15.56° C | 96% | 1025.3 hPa | 0 mm | - | - | - |
| 1777403311 | 15.56° C | 96% | 1025.2 hPa | 0 mm | - | - | - |
| 1777402211 | 15.56° C | 97% | 1025.2 hPa | 0 mm | - | - | - |
| 1777401206 | 15.56° C | 98% | 1025.1 hPa | 0 mm | - | - | - |
| 1777400131 | 15° C | 99% | 1025.3 hPa | 0 mm | - | - | - |
| 1777399140 | 15.56° C | 99% | 1025.2 hPa | 0 mm | - | - | - |
| 1777398126 | 15.56° C | 96% | 1025.1 hPa | 0 mm | - | - | - |
| 1777396991 | 16.11° C | 95% | 1025.2 hPa | 0 mm | - | - | - |
| 1777395901 | 15.56° C | 97% | 1025.1 hPa | 0 mm | - | - | - |
| 1777394811 | 15.56° C | 97% | 1025.2 hPa | 0 mm | - | - | - |
| 1777393666 | 15.56° C | 98% | 1025.1 hPa | 0 mm | - | - | - |
* Rain latest hour (hover to see other rain measurements)
** Current wind speed in m/s (hover to see current wind gust speed)